sensor_id;sensor_type;location;lat;lon;timestamp;P1;durP1;ratioP1;P2;durP2;ratioP2
10894;SDS011;5500;49.886;8.074;2023-04-01T00:02:05;4.60;;;1.63;;
10894;SDS011;5500;49.886;8.074;2023-04-01T00:04:35;4.03;;;1.53;;
10894;SDS011;5500;49.886;8.074;2023-04-01T00:07:03;3.13;;;1.73;;
10894;SDS011;5500;49.886;8.074;2023-04-01T00:09:31;3.47;;;1.63;;
10894;SDS011;5500;49.886;8.074;2023-04-01T00:11:59;1.90;;;1.20;;
10894;SDS011;5500;49.886;8.074;2023-04-01T00:14:27;3.63;;;1.27;;
10894;SDS011;5500;49.886;8.074;2023-04-01T00:16:55;3.87;;;1.53;;
10894;SDS011;5500;49.886;8.074;2023-04-01T00:19:23;3.10;;;1.63;;
10894;SDS011;5500;49.886;8.074;2023-04-01T00:21:52;4.80;;;1.83;;
10894;SDS011;5500;49.886;8.074;2023-04-01T00:24:20;2.07;;;1.40;;
10894;SDS011;5500;49.886;8.074;2023-04-01T00:26:49;6.07;;;1.67;;
10894;SDS011;5500;49.886;8.074;2023-04-01T00:29:17;2.80;;;1.53;;
10894;SDS011;5500;49.886;8.074;2023-04-01T00:31:45;2.80;;;1.20;;
10894;SDS011;5500;49.886;8.074;2023-04-01T00:34:14;5.53;;;1.60;;
10894;SDS011;5500;49.886;8.074;2023-04-01T00:36:42;2.80;;;1.50;;
10894;SDS011;5500;49.886;8.074;2023-04-01T00:39:12;4.10;;;1.63;;
10894;SDS011;5500;49.886;8.074;2023-04-01T00:41:40;3.37;;;1.57;;
10894;SDS011;5500;49.886;8.074;2023-04-01T00:44:11;5.77;;;1.53;;
10894;SDS011;5500;49.886;8.074;2023-04-01T00:46:42;3.73;;;1.60;;
10894;SDS011;5500;49.886;8.074;2023-04-01T00:49:10;5.27;;;1.90;;
10894;SDS011;5500;49.886;8.074;2023-04-01T00:51:38;4.47;;;1.57;;
10894;SDS011;5500;49.886;8.074;2023-04-01T00:54:06;5.13;;;1.50;;
10894;SDS011;5500;49.886;8.074;2023-04-01T00:56:36;3.03;;;1.30;;
10894;SDS011;5500;49.886;8.074;2023-04-01T00:59:06;3.60;;;1.70;;
10894;SDS011;5500;49.886;8.074;2023-04-01T01:01:37;3.97;;;1.40;;
10894;SDS011;5500;49.886;8.074;2023-04-01T01:04:05;2.67;;;1.37;;
10894;SDS011;5500;49.886;8.074;2023-04-01T01:06:37;9.17;;;1.83;;
10894;SDS011;5500;49.886;8.074;2023-04-01T01:09:10;4.47;;;1.17;;
10894;SDS011;5500;49.886;8.074;2023-04-01T01:11:44;3.80;;;1.53;;
10894;SDS011;5500;49.886;8.074;2023-04-01T01:14:19;5.67;;;1.40;;
10894;SDS011;5500;49.886;8.074;2023-04-01T01:16:57;3.40;;;1.27;;
10894;SDS011;5500;49.886;8.074;2023-04-01T01:19:33;3.27;;;1.60;;
10894;SDS011;5500;49.886;8.074;2023-04-01T01:22:22;4.50;;;1.70;;
10894;SDS011;5500;49.886;8.074;2023-04-01T01:25:12;2.40;;;1.10;;
10894;SDS011;5500;49.886;8.074;2023-04-01T01:27:49;3.57;;;1.43;;
10894;SDS011;5500;49.886;8.074;2023-04-01T01:30:31;3.10;;;1.40;;
10894;SDS011;5500;49.886;8.074;2023-04-01T01:33:12;7.50;;;1.77;;
10894;SDS011;5500;49.886;8.074;2023-04-01T01:36:01;4.63;;;1.80;;
10894;SDS011;5500;49.886;8.074;2023-04-01T01:38:33;5.63;;;1.20;;
10894;SDS011;5500;49.886;8.074;2023-04-01T01:41:01;5.37;;;1.60;;
10894;SDS011;5500;49.886;8.074;2023-04-01T01:43:30;2.13;;;1.27;;
10894;SDS011;5500;49.886;8.074;2023-04-01T01:46:00;5.60;;;1.93;;
10894;SDS011;5500;49.886;8.074;2023-04-01T01:48:31;3.37;;;1.43;;
10894;SDS011;5500;49.886;8.074;2023-04-01T01:51:03;4.83;;;1.20;;
10894;SDS011;5500;49.886;8.074;2023-04-01T01:53:31;2.93;;;1.30;;
10894;SDS011;5500;49.886;8.074;2023-04-01T01:55:59;5.47;;;1.43;;
10894;SDS011;5500;49.886;8.074;2023-04-01T01:58:27;3.87;;;1.50;;
10894;SDS011;5500;49.886;8.074;2023-04-01T02:00:58;4.00;;;1.40;;
10894;SDS011;5500;49.886;8.074;2023-04-01T02:03:28;5.73;;;1.53;;
10894;SDS011;5500;49.886;8.074;2023-04-01T02:05:58;2.53;;;1.40;;
10894;SDS011;5500;49.886;8.074;2023-04-01T02:08:29;4.10;;;1.30;;
10894;SDS011;5500;49.886;8.074;2023-04-01T02:11:01;2.40;;;1.23;;
10894;SDS011;5500;49.886;8.074;2023-04-01T02:13:30;5.33;;;1.30;;
10894;SDS011;5500;49.886;8.074;2023-04-01T02:16:04;3.23;;;1.30;;
10894;SDS011;5500;49.886;8.074;2023-04-01T02:18:35;6.10;;;1.53;;
10894;SDS011;5500;49.886;8.074;2023-04-01T02:21:04;4.97;;;1.53;;
10894;SDS011;5500;49.886;8.074;2023-04-01T02:23:34;2.23;;;1.17;;
10894;SDS011;5500;49.886;8.074;2023-04-01T02:26:03;1.80;;;1.33;;
10894;SDS011;5500;49.886;8.074;2023-04-01T02:28:33;5.73;;;1.50;;
10894;SDS011;5500;49.886;8.074;2023-04-01T02:31:01;3.90;;;1.33;;
10894;SDS011;5500;49.886;8.074;2023-04-01T02:33:30;2.23;;;1.23;;
10894;SDS011;5500;49.886;8.074;2023-04-01T02:35:58;3.77;;;1.23;;
10894;SDS011;5500;49.886;8.074;2023-04-01T02:38:26;2.27;;;1.53;;
10894;SDS011;5500;49.886;8.074;2023-04-01T02:40:58;1.63;;;1.40;;
10894;SDS011;5500;49.886;8.074;2023-04-01T02:43:27;4.70;;;1.90;;
10894;SDS011;5500;49.886;8.074;2023-04-01T02:45:54;5.50;;;1.60;;
10894;SDS011;5500;49.886;8.074;2023-04-01T02:48:22;2.87;;;1.20;;
10894;SDS011;5500;49.886;8.074;2023-04-01T02:50:50;3.50;;;1.27;;
10894;SDS011;5500;49.886;8.074;2023-04-01T02:53:17;2.93;;;1.30;;
10894;SDS011;5500;49.886;8.074;2023-04-01T02:55:45;2.23;;;1.10;;
10894;SDS011;5500;49.886;8.074;2023-04-01T02:58:14;6.90;;;1.40;;
10894;SDS011;5500;49.886;8.074;2023-04-01T03:00:41;4.33;;;1.20;;
10894;SDS011;5500;49.886;8.074;2023-04-01T03:03:09;2.60;;;1.20;;
10894;SDS011;5500;49.886;8.074;2023-04-01T03:05:39;3.70;;;1.20;;
10894;SDS011;5500;49.886;8.074;2023-04-01T03:08:06;5.50;;;1.57;;
10894;SDS011;5500;49.886;8.074;2023-04-01T03:10:34;4.10;;;1.50;;
10894;SDS011;5500;49.886;8.074;2023-04-01T03:13:02;2.57;;;1.00;;
10894;SDS011;5500;49.886;8.074;2023-04-01T03:15:31;3.47;;;1.40;;
10894;SDS011;5500;49.886;8.074;2023-04-01T03:17:59;2.73;;;1.33;;
10894;SDS011;5500;49.886;8.074;2023-04-01T03:20:26;7.30;;;2.27;;
10894;SDS011;5500;49.886;8.074;2023-04-01T03:22:54;4.43;;;1.53;;
10894;SDS011;5500;49.886;8.074;2023-04-01T03:25:22;5.80;;;1.70;;
10894;SDS011;5500;49.886;8.074;2023-04-01T03:27:50;2.63;;;1.40;;
10894;SDS011;5500;49.886;8.074;2023-04-01T03:30:17;5.63;;;1.60;;
10894;SDS011;5500;49.886;8.074;2023-04-01T03:32:46;4.73;;;1.80;;
10894;SDS011;5500;49.886;8.074;2023-04-01T03:35:14;2.80;;;1.03;;
10894;SDS011;5500;49.886;8.074;2023-04-01T03:37:42;4.27;;;1.53;;
10894;SDS011;5500;49.886;8.074;2023-04-01T03:40:10;6.73;;;1.50;;
10894;SDS011;5500;49.886;8.074;2023-04-01T03:42:38;5.03;;;1.33;;
10894;SDS011;5500;49.886;8.074;2023-04-01T03:45:06;4.30;;;1.50;;
10894;SDS011;5500;49.886;8.074;2023-04-01T03:47:34;3.50;;;1.37;;
10894;SDS011;5500;49.886;8.074;2023-04-01T03:50:03;5.57;;;1.10;;
10894;SDS011;5500;49.886;8.074;2023-04-01T03:52:32;4.67;;;1.10;;
10894;SDS011;5500;49.886;8.074;2023-04-01T03:55:00;3.63;;;1.70;;
10894;SDS011;5500;49.886;8.074;2023-04-01T03:57:30;6.40;;;1.30;;
10894;SDS011;5500;49.886;8.074;2023-04-01T03:59:58;3.40;;;1.30;;
10894;SDS011;5500;49.886;8.074;2023-04-01T04:02:26;5.53;;;1.70;;
10894;SDS011;5500;49.886;8.074;2023-04-01T04:04:53;5.10;;;1.30;;
10894;SDS011;5500;49.886;8.074;2023-04-01T04:07:22;4.33;;;1.53;;
10894;SDS011;5500;49.886;8.074;2023-04-01T04:09:50;4.70;;;1.60;;
10894;SDS011;5500;49.886;8.074;2023-04-01T04:12:18;2.73;;;1.40;;
10894;SDS011;5500;49.886;8.074;2023-04-01T04:14:45;1.87;;;1.67;;
10894;SDS011;5500;49.886;8.074;2023-04-01T04:17:13;6.67;;;1.47;;
10894;SDS011;5500;49.886;8.074;2023-04-01T04:19:42;4.40;;;1.77;;
10894;SDS011;5500;49.886;8.074;2023-04-01T04:22:10;6.07;;;1.73;;
10894;SDS011;5500;49.886;8.074;2023-04-01T04:24:39;3.63;;;1.37;;
10894;SDS011;5500;49.886;8.074;2023-04-01T04:27:07;3.10;;;1.30;;
10894;SDS011;5500;49.886;8.074;2023-04-01T04:29:35;3.13;;;1.27;;
10894;SDS011;5500;49.886;8.074;2023-04-01T04:32:02;4.50;;;1.20;;
10894;SDS011;5500;49.886;8.074;2023-04-01T04:34:30;3.80;;;1.30;;
10894;SDS011;5500;49.886;8.074;2023-04-01T04:36:58;3.03;;;1.57;;
10894;SDS011;5500;49.886;8.074;2023-04-01T04:39:25;3.33;;;1.30;;
10894;SDS011;5500;49.886;8.074;2023-04-01T04:41:55;3.67;;;1.47;;
10894;SDS011;5500;49.886;8.074;2023-04-01T04:44:22;4.73;;;1.63;;
10894;SDS011;5500;49.886;8.074;2023-04-01T04:46:50;4.30;;;1.33;;
10894;SDS011;5500;49.886;8.074;2023-04-01T04:49:18;2.57;;;1.70;;
10894;SDS011;5500;49.886;8.074;2023-04-01T04:51:45;3.87;;;1.30;;
10894;SDS011;5500;49.886;8.074;2023-04-01T04:54:14;3.47;;;0.90;;
10894;SDS011;5500;49.886;8.074;2023-04-01T04:56:41;3.10;;;1.53;;
10894;SDS011;5500;49.886;8.074;2023-04-01T04:59:10;4.47;;;1.50;;
10894;SDS011;5500;49.886;8.074;2023-04-01T05:01:38;3.50;;;1.30;;
10894;SDS011;5500;49.886;8.074;2023-04-01T05:04:06;2.40;;;1.23;;
10894;SDS011;5500;49.886;8.074;2023-04-01T05:06:34;4.33;;;1.37;;
10894;SDS011;5500;49.886;8.074;2023-04-01T05:09:01;3.50;;;1.53;;
10894;SDS011;5500;49.886;8.074;2023-04-01T05:11:29;2.93;;;1.07;;
10894;SDS011;5500;49.886;8.074;2023-04-01T05:13:57;2.23;;;1.10;;
10894;SDS011;5500;49.886;8.074;2023-04-01T05:16:26;5.87;;;1.70;;
10894;SDS011;5500;49.886;8.074;2023-04-01T05:18:53;4.30;;;1.40;;
10894;SDS011;5500;49.886;8.074;2023-04-01T05:21:21;2.77;;;0.90;;
10894;SDS011;5500;49.886;8.074;2023-04-01T05:23:49;2.17;;;1.00;;
10894;SDS011;5500;49.886;8.074;2023-04-01T05:26:16;2.50;;;1.00;;
10894;SDS011;5500;49.886;8.074;2023-04-01T05:28:44;4.17;;;0.93;;
10894;SDS011;5500;49.886;8.074;2023-04-01T05:31:11;3.57;;;0.90;;
10894;SDS011;5500;49.886;8.074;2023-04-01T05:33:40;3.40;;;0.77;;
10894;SDS011;5500;49.886;8.074;2023-04-01T05:36:09;1.07;;;0.73;;
10894;SDS011;5500;49.886;8.074;2023-04-01T05:38:38;2.30;;;1.03;;
10894;SDS011;5500;49.886;8.074;2023-04-01T05:41:06;1.27;;;0.67;;
10894;SDS011;5500;49.886;8.074;2023-04-01T05:43:35;2.67;;;0.97;;
10894;SDS011;5500;49.886;8.074;2023-04-01T05:46:03;1.40;;;0.80;;
10894;SDS011;5500;49.886;8.074;2023-04-01T05:48:32;2.47;;;1.07;;
10894;SDS011;5500;49.886;8.074;2023-04-01T05:51:02;5.23;;;1.37;;
10894;SDS011;5500;49.886;8.074;2023-04-01T05:53:30;1.23;;;0.73;;
10894;SDS011;5500;49.886;8.074;2023-04-01T05:56:01;2.13;;;1.07;;
10894;SDS011;5500;49.886;8.074;2023-04-01T05:58:29;0.90;;;0.53;;
10894;SDS011;5500;49.886;8.074;2023-04-01T06:01:00;0.93;;;0.80;;
10894;SDS011;5500;49.886;8.074;2023-04-01T06:03:39;2.60;;;0.80;;
10894;SDS011;5500;49.886;8.074;2023-04-01T06:06:10;2.43;;;0.90;;
10894;SDS011;5500;49.886;8.074;2023-04-01T06:08:42;1.20;;;0.90;;
10894;SDS011;5500;49.886;8.074;2023-04-01T06:11:16;2.63;;;0.80;;
10894;SDS011;5500;49.886;8.074;2023-04-01T06:13:53;2.70;;;1.00;;
10894;SDS011;5500;49.886;8.074;2023-04-01T06:16:37;2.20;;;0.97;;
10894;SDS011;5500;49.886;8.074;2023-04-01T06:19:17;4.73;;;1.07;;
10894;SDS011;5500;49.886;8.074;2023-04-01T06:24:59;4.03;;;1.13;;
10894;SDS011;5500;49.886;8.074;2023-04-01T06:27:50;1.00;;;0.40;;
10894;SDS011;5500;49.886;8.074;2023-04-01T06:30:35;0.47;;;0.47;;
10894;SDS011;5500;49.886;8.074;2023-04-01T06:33:25;0.70;;;0.60;;
10894;SDS011;5500;49.886;8.074;2023-04-01T06:36:06;2.27;;;0.93;;
10894;SDS011;5500;49.886;8.074;2023-04-01T06:38:41;2.30;;;0.60;;
10894;SDS011;5500;49.886;8.074;2023-04-01T06:41:27;1.43;;;0.60;;
10894;SDS011;5500;49.886;8.074;2023-04-01T06:44:15;1.50;;;0.90;;
10894;SDS011;5500;49.886;8.074;2023-04-01T06:46:46;2.00;;;0.43;;
10894;SDS011;5500;49.886;8.074;2023-04-01T06:49:20;0.70;;;0.50;;
10894;SDS011;5500;49.886;8.074;2023-04-01T06:51:54;0.63;;;0.50;;
10894;SDS011;5500;49.886;8.074;2023-04-01T06:54:28;0.30;;;0.30;;
10894;SDS011;5500;49.886;8.074;2023-04-01T06:57:02;0.63;;;0.40;;
10894;SDS011;5500;49.886;8.074;2023-04-01T06:59:32;2.37;;;0.67;;
10894;SDS011;5500;49.886;8.074;2023-04-01T07:02:01;0.70;;;0.47;;
10894;SDS011;5500;49.886;8.074;2023-04-01T07:04:34;1.90;;;0.63;;
10894;SDS011;5500;49.886;8.074;2023-04-01T07:07:05;4.00;;;0.60;;
10894;SDS011;5500;49.886;8.074;2023-04-01T07:09:38;2.20;;;0.70;;
10894;SDS011;5500;49.886;8.074;2023-04-01T07:12:12;0.83;;;0.40;;
10894;SDS011;5500;49.886;8.074;2023-04-01T07:14:43;0.77;;;0.67;;
10894;SDS011;5500;49.886;8.074;2023-04-01T07:17:12;0.77;;;0.57;;
10894;SDS011;5500;49.886;8.074;2023-04-01T07:19:42;0.87;;;0.50;;
10894;SDS011;5500;49.886;8.074;2023-04-01T07:22:15;0.67;;;0.40;;
10894;SDS011;5500;49.886;8.074;2023-04-01T07:24:50;0.87;;;0.47;;
10894;SDS011;5500;49.886;8.074;2023-04-01T07:27:20;0.47;;;0.30;;
10894;SDS011;5500;49.886;8.074;2023-04-01T07:29:47;0.77;;;0.30;;
10894;SDS011;5500;49.886;8.074;2023-04-01T07:32:17;0.43;;;0.43;;
10894;SDS011;5500;49.886;8.074;2023-04-01T07:34:55;1.43;;;0.50;;
10894;SDS011;5500;49.886;8.074;2023-04-01T07:37:31;0.40;;;0.40;;
10894;SDS011;5500;49.886;8.074;2023-04-01T07:40:07;0.53;;;0.40;;
10894;SDS011;5500;49.886;8.074;2023-04-01T07:42:46;0.53;;;0.50;;
10894;SDS011;5500;49.886;8.074;2023-04-01T07:45:22;0.47;;;0.43;;
10894;SDS011;5500;49.886;8.074;2023-04-01T07:47:56;0.47;;;0.40;;
10894;SDS011;5500;49.886;8.074;2023-04-01T07:50:30;1.30;;;0.40;;
10894;SDS011;5500;49.886;8.074;2023-04-01T07:53:02;1.33;;;0.80;;
10894;SDS011;5500;49.886;8.074;2023-04-01T07:55:37;0.40;;;0.40;;
10894;SDS011;5500;49.886;8.074;2023-04-01T07:58:10;0.67;;;0.33;;
10894;SDS011;5500;49.886;8.074;2023-04-01T08:00:42;0.87;;;0.60;;
10894;SDS011;5500;49.886;8.074;2023-04-01T08:03:20;0.90;;;0.37;;
10894;SDS011;5500;49.886;8.074;2023-04-01T08:05:57;1.83;;;0.50;;
10894;SDS011;5500;49.886;8.074;2023-04-01T08:08:29;0.53;;;0.30;;
10894;SDS011;5500;49.886;8.074;2023-04-01T08:11:05;0.80;;;0.60;;
10894;SDS011;5500;49.886;8.074;2023-04-01T08:13:42;0.20;;;0.20;;
10894;SDS011;5500;49.886;8.074;2023-04-01T08:16:14;0.53;;;0.53;;
10894;SDS011;5500;49.886;8.074;2023-04-01T08:18:46;1.67;;;0.60;;
10894;SDS011;5500;49.886;8.074;2023-04-01T08:21:21;0.53;;;0.40;;
10894;SDS011;5500;49.886;8.074;2023-04-01T08:23:52;1.53;;;0.40;;
10894;SDS011;5500;49.886;8.074;2023-04-01T08:26:24;0.80;;;0.63;;
10894;SDS011;5500;49.886;8.074;2023-04-01T08:28:58;0.60;;;0.43;;
10894;SDS011;5500;49.886;8.074;2023-04-01T08:31:29;0.50;;;0.40;;
10894;SDS011;5500;49.886;8.074;2023-04-01T08:34:01;0.40;;;0.30;;
10894;SDS011;5500;49.886;8.074;2023-04-01T08:36:31;0.40;;;0.40;;
10894;SDS011;5500;49.886;8.074;2023-04-01T08:39:02;0.50;;;0.50;;
10894;SDS011;5500;49.886;8.074;2023-04-01T08:41:44;0.70;;;0.30;;
10894;SDS011;5500;49.886;8.074;2023-04-01T08:44:32;1.03;;;0.40;;
10894;SDS011;5500;49.886;8.074;2023-04-01T08:47:09;0.40;;;0.30;;
10894;SDS011;5500;49.886;8.074;2023-04-01T08:49:49;1.13;;;0.57;;
10894;SDS011;5500;49.886;8.074;2023-04-01T08:55:20;0.30;;;0.30;;
10894;SDS011;5500;49.886;8.074;2023-04-01T08:58:06;2.23;;;0.40;;
10894;SDS011;5500;49.886;8.074;2023-04-01T09:00:48;0.50;;;0.40;;
10894;SDS011;5500;49.886;8.074;2023-04-01T09:03:33;0.20;;;0.20;;
10894;SDS011;5500;49.886;8.074;2023-04-01T09:09:12;0.30;;;0.30;;
10894;SDS011;5500;49.886;8.074;2023-04-01T09:12:13;0.33;;;0.30;;
10894;SDS011;5500;49.886;8.074;2023-04-01T09:18:11;0.10;;;0.10;;
10894;SDS011;5500;49.886;8.074;2023-04-01T09:20:46;0.30;;;0.30;;
10894;SDS011;5500;49.886;8.074;2023-04-01T09:26:28;0.27;;;0.20;;
10894;SDS011;5500;49.886;8.074;2023-04-01T09:29:08;0.20;;;0.13;;
10894;SDS011;5500;49.886;8.074;2023-04-01T09:31:47;0.40;;;0.40;;
10894;SDS011;5500;49.886;8.074;2023-04-01T09:37:20;0.40;;;0.30;;
10894;SDS011;5500;49.886;8.074;2023-04-01T09:42:44;0.20;;;0.20;;
10894;SDS011;5500;49.886;8.074;2023-04-01T09:45:26;0.20;;;0.20;;
10894;SDS011;5500;49.886;8.074;2023-04-01T09:48:07;0.43;;;0.20;;
10894;SDS011;5500;49.886;8.074;2023-04-01T09:50:44;0.37;;;0.30;;
10894;SDS011;5500;49.886;8.074;2023-04-01T09:53:20;0.10;;;0.10;;
10894;SDS011;5500;49.886;8.074;2023-04-01T09:56:18;0.90;;;0.17;;
10894;SDS011;5500;49.886;8.074;2023-04-01T10:05:04;0.03;;;0.03;;
10894;SDS011;5500;49.886;8.074;2023-04-01T10:07:57;0.10;;;0.10;;
10894;SDS011;5500;49.886;8.074;2023-04-01T10:11:05;0.37;;;0.30;;
10894;SDS011;5500;49.886;8.074;2023-04-01T10:22:34;0.57;;;0.30;;
10894;SDS011;5500;49.886;8.074;2023-04-01T10:25:18;1.00;;;0.40;;
10894;SDS011;5500;49.886;8.074;2023-04-01T10:27:58;0.10;;;0.10;;
10894;SDS011;5500;49.886;8.074;2023-04-01T10:30:38;0.10;;;0.10;;
10894;SDS011;5500;49.886;8.074;2023-04-01T10:33:46;0.20;;;0.20;;
10894;SDS011;5500;49.886;8.074;2023-04-01T10:36:46;0.30;;;0.30;;
10894;SDS011;5500;49.886;8.074;2023-04-01T10:39:34;0.30;;;0.23;;
10894;SDS011;5500;49.886;8.074;2023-04-01T10:48:23;0.23;;;0.20;;
10894;SDS011;5500;49.886;8.074;2023-04-01T10:51:24;0.50;;;0.50;;
10894;SDS011;5500;49.886;8.074;2023-04-01T10:56:59;0.50;;;0.20;;
10894;SDS011;5500;49.886;8.074;2023-04-01T10:59:28;0.10;;;0.10;;
10894;SDS011;5500;49.886;8.074;2023-04-01T11:02:15;0.10;;;0.10;;
10894;SDS011;5500;49.886;8.074;2023-04-01T11:11:35;1.03;;;0.40;;
10894;SDS011;5500;49.886;8.074;2023-04-01T11:17:42;0.70;;;0.70;;
10894;SDS011;5500;49.886;8.074;2023-04-01T11:20:36;1.43;;;0.43;;
10894;SDS011;5500;49.886;8.074;2023-04-01T11:23:22;0.20;;;0.20;;
10894;SDS011;5500;49.886;8.074;2023-04-01T11:26:00;0.73;;;0.40;;
10894;SDS011;5500;49.886;8.074;2023-04-01T11:28:46;0.27;;;0.23;;
10894;SDS011;5500;49.886;8.074;2023-04-01T11:31:29;0.20;;;0.20;;
10894;SDS011;5500;49.886;8.074;2023-04-01T11:34:07;0.90;;;0.30;;
10894;SDS011;5500;49.886;8.074;2023-04-01T11:36:44;0.57;;;0.37;;
10894;SDS011;5500;49.886;8.074;2023-04-01T11:39:20;0.10;;;0.10;;
10894;SDS011;5500;49.886;8.074;2023-04-01T11:41:52;0.20;;;0.20;;
10894;SDS011;5500;49.886;8.074;2023-04-01T11:44:27;0.73;;;0.40;;
10894;SDS011;5500;49.886;8.074;2023-04-01T11:47:03;0.13;;;0.13;;
10894;SDS011;5500;49.886;8.074;2023-04-01T11:49:44;0.40;;;0.40;;
10894;SDS011;5500;49.886;8.074;2023-04-01T11:52:21;0.33;;;0.30;;
10894;SDS011;5500;49.886;8.074;2023-04-01T11:55:00;0.20;;;0.20;;
10894;SDS011;5500;49.886;8.074;2023-04-01T11:57:41;1.00;;;0.40;;
10894;SDS011;5500;49.886;8.074;2023-04-01T12:00:15;0.40;;;0.40;;
10894;SDS011;5500;49.886;8.074;2023-04-01T12:03:07;0.00;;;0.00;;
10894;SDS011;5500;49.886;8.074;2023-04-01T12:05:46;0.40;;;0.20;;
10894;SDS011;5500;49.886;8.074;2023-04-01T12:08:19;0.20;;;0.20;;
10894;SDS011;5500;49.886;8.074;2023-04-01T12:10:56;0.40;;;0.40;;
10894;SDS011;5500;49.886;8.074;2023-04-01T12:13:31;0.37;;;0.23;;
10894;SDS011;5500;49.886;8.074;2023-04-01T12:16:13;0.30;;;0.30;;
10894;SDS011;5500;49.886;8.074;2023-04-01T12:19:11;0.40;;;0.30;;
10894;SDS011;5500;49.886;8.074;2023-04-01T12:21:48;0.27;;;0.20;;
10894;SDS011;5500;49.886;8.074;2023-04-01T12:27:20;0.33;;;0.33;;
10894;SDS011;5500;49.886;8.074;2023-04-01T12:32:58;0.37;;;0.30;;
10894;SDS011;5500;49.886;8.074;2023-04-01T12:35:59;0.53;;;0.40;;
10894;SDS011;5500;49.886;8.074;2023-04-01T12:38:38;0.30;;;0.20;;
10894;SDS011;5500;49.886;8.074;2023-04-01T12:41:14;0.20;;;0.20;;
10894;SDS011;5500;49.886;8.074;2023-04-01T12:43:54;0.10;;;0.10;;
10894;SDS011;5500;49.886;8.074;2023-04-01T12:47:03;0.60;;;0.40;;
10894;SDS011;5500;49.886;8.074;2023-04-01T12:49:49;0.17;;;0.17;;
10894;SDS011;5500;49.886;8.074;2023-04-01T12:52:25;0.93;;;0.30;;
10894;SDS011;5500;49.886;8.074;2023-04-01T13:00:58;0.30;;;0.30;;
10894;SDS011;5500;49.886;8.074;2023-04-01T13:03:44;0.10;;;0.10;;
10894;SDS011;5500;49.886;8.074;2023-04-01T13:06:23;0.50;;;0.50;;
10894;SDS011;5500;49.886;8.074;2023-04-01T13:08:56;0.30;;;0.20;;
10894;SDS011;5500;49.886;8.074;2023-04-01T13:11:35;0.20;;;0.20;;
10894;SDS011;5500;49.886;8.074;2023-04-01T13:14:15;0.10;;;0.10;;
10894;SDS011;5500;49.886;8.074;2023-04-01T13:17:01;0.50;;;0.50;;
10894;SDS011;5500;49.886;8.074;2023-04-01T13:19:35;0.17;;;0.17;;
10894;SDS011;5500;49.886;8.074;2023-04-01T13:22:13;0.20;;;0.20;;
10894;SDS011;5500;49.886;8.074;2023-04-01T13:24:45;0.40;;;0.40;;
10894;SDS011;5500;49.886;8.074;2023-04-01T13:27:18;0.50;;;0.40;;
10894;SDS011;5500;49.886;8.074;2023-04-01T13:29:54;0.77;;;0.20;;
10894;SDS011;5500;49.886;8.074;2023-04-01T13:32:29;0.73;;;0.23;;
10894;SDS011;5500;49.886;8.074;2023-04-01T13:35:10;0.40;;;0.20;;
10894;SDS011;5500;49.886;8.074;2023-04-01T13:37:46;0.27;;;0.20;;
10894;SDS011;5500;49.886;8.074;2023-04-01T13:40:33;0.43;;;0.40;;
10894;SDS011;5500;49.886;8.074;2023-04-01T13:43:12;0.40;;;0.40;;
10894;SDS011;5500;49.886;8.074;2023-04-01T13:45:49;0.30;;;0.30;;
10894;SDS011;5500;49.886;8.074;2023-04-01T13:48:31;0.60;;;0.30;;
10894;SDS011;5500;49.886;8.074;2023-04-01T13:51:13;0.20;;;0.20;;
10894;SDS011;5500;49.886;8.074;2023-04-01T13:54:06;0.60;;;0.17;;
10894;SDS011;5500;49.886;8.074;2023-04-01T13:56:56;0.20;;;0.20;;
10894;SDS011;5500;49.886;8.074;2023-04-01T13:59:39;0.27;;;0.20;;
10894;SDS011;5500;49.886;8.074;2023-04-01T14:02:27;0.87;;;0.40;;
10894;SDS011;5500;49.886;8.074;2023-04-01T14:05:09;0.30;;;0.30;;
10894;SDS011;5500;49.886;8.074;2023-04-01T14:07:47;0.37;;;0.37;;
10894;SDS011;5500;49.886;8.074;2023-04-01T14:10:19;0.80;;;0.50;;
10894;SDS011;5500;49.886;8.074;2023-04-01T14:12:55;0.77;;;0.47;;
10894;SDS011;5500;49.886;8.074;2023-04-01T14:15:32;0.50;;;0.50;;
10894;SDS011;5500;49.886;8.074;2023-04-01T14:18:13;1.70;;;0.40;;
10894;SDS011;5500;49.886;8.074;2023-04-01T14:20:48;0.30;;;0.30;;
10894;SDS011;5500;49.886;8.074;2023-04-01T14:23:33;0.50;;;0.50;;
10894;SDS011;5500;49.886;8.074;2023-04-01T14:29:04;0.20;;;0.20;;
10894;SDS011;5500;49.886;8.074;2023-04-01T14:31:49;1.60;;;0.43;;
10894;SDS011;5500;49.886;8.074;2023-04-01T14:34:26;0.73;;;0.30;;
10894;SDS011;5500;49.886;8.074;2023-04-01T14:37:02;0.10;;;0.10;;
10894;SDS011;5500;49.886;8.074;2023-04-01T14:42:36;0.30;;;0.30;;
10894;SDS011;5500;49.886;8.074;2023-04-01T14:45:17;0.10;;;0.10;;
10894;SDS011;5500;49.886;8.074;2023-04-01T14:47:54;0.20;;;0.20;;
10894;SDS011;5500;49.886;8.074;2023-04-01T14:50:26;0.20;;;0.17;;
10894;SDS011;5500;49.886;8.074;2023-04-01T14:52:56;0.20;;;0.20;;
10894;SDS011;5500;49.886;8.074;2023-04-01T14:55:28;0.23;;;0.20;;
10894;SDS011;5500;49.886;8.074;2023-04-01T14:58:09;0.40;;;0.23;;
10894;SDS011;5500;49.886;8.074;2023-04-01T15:00:47;0.30;;;0.30;;
10894;SDS011;5500;49.886;8.074;2023-04-01T15:03:19;0.30;;;0.20;;
10894;SDS011;5500;49.886;8.074;2023-04-01T15:05:49;0.80;;;0.30;;
10894;SDS011;5500;49.886;8.074;2023-04-01T15:08:20;0.87;;;0.30;;
10894;SDS011;5500;49.886;8.074;2023-04-01T15:11:03;0.20;;;0.10;;
10894;SDS011;5500;49.886;8.074;2023-04-01T15:13:42;0.53;;;0.30;;
10894;SDS011;5500;49.886;8.074;2023-04-01T15:16:20;0.23;;;0.23;;
10894;SDS011;5500;49.886;8.074;2023-04-01T15:18:53;0.10;;;0.10;;
10894;SDS011;5500;49.886;8.074;2023-04-01T15:21:32;1.70;;;0.30;;
10894;SDS011;5500;49.886;8.074;2023-04-01T15:24:06;0.20;;;0.20;;
10894;SDS011;5500;49.886;8.074;2023-04-01T15:26:53;0.30;;;0.30;;
10894;SDS011;5500;49.886;8.074;2023-04-01T15:29:37;4.60;;;0.37;;
10894;SDS011;5500;49.886;8.074;2023-04-01T15:32:15;0.40;;;0.40;;
10894;SDS011;5500;49.886;8.074;2023-04-01T15:34:47;0.50;;;0.43;;
10894;SDS011;5500;49.886;8.074;2023-04-01T15:37:21;0.00;;;0.00;;
10894;SDS011;5500;49.886;8.074;2023-04-01T15:39:54;0.40;;;0.40;;
10894;SDS011;5500;49.886;8.074;2023-04-01T15:42:28;0.40;;;0.40;;
10894;SDS011;5500;49.886;8.074;2023-04-01T15:45:08;1.40;;;0.60;;
10894;SDS011;5500;49.886;8.074;2023-04-01T15:47:42;0.20;;;0.20;;
10894;SDS011;5500;49.886;8.074;2023-04-01T15:50:28;0.20;;;0.20;;
10894;SDS011;5500;49.886;8.074;2023-04-01T15:53:12;0.43;;;0.40;;
10894;SDS011;5500;49.886;8.074;2023-04-01T15:55:46;0.47;;;0.20;;
10894;SDS011;5500;49.886;8.074;2023-04-01T16:01:04;3.07;;;1.60;;
10894;SDS011;5500;49.886;8.074;2023-04-01T16:03:38;0.50;;;0.50;;
10894;SDS011;5500;49.886;8.074;2023-04-01T16:06:12;3.27;;;2.30;;
10894;SDS011;5500;49.886;8.074;2023-04-01T16:09:01;1.67;;;1.57;;
10894;SDS011;5500;49.886;8.074;2023-04-01T16:11:35;1.67;;;1.00;;
10894;SDS011;5500;49.886;8.074;2023-04-01T16:14:11;0.50;;;0.50;;
10894;SDS011;5500;49.886;8.074;2023-04-01T16:16:47;0.77;;;0.77;;
10894;SDS011;5500;49.886;8.074;2023-04-01T16:19:32;0.60;;;0.60;;
10894;SDS011;5500;49.886;8.074;2023-04-01T16:22:07;0.83;;;0.50;;
10894;SDS011;5500;49.886;8.074;2023-04-01T16:24:38;0.47;;;0.47;;
10894;SDS011;5500;49.886;8.074;2023-04-01T16:27:10;0.60;;;0.57;;
10894;SDS011;5500;49.886;8.074;2023-04-01T16:29:41;1.97;;;1.70;;
10894;SDS011;5500;49.886;8.074;2023-04-01T16:35:19;3.33;;;2.93;;
10894;SDS011;5500;49.886;8.074;2023-04-01T16:37:53;4.60;;;3.07;;
10894;SDS011;5500;49.886;8.074;2023-04-01T16:40:24;3.00;;;2.63;;
10894;SDS011;5500;49.886;8.074;2023-04-01T16:42:54;2.90;;;2.33;;
10894;SDS011;5500;49.886;8.074;2023-04-01T16:45:26;3.83;;;3.20;;
10894;SDS011;5500;49.886;8.074;2023-04-01T16:48:01;11.43;;;6.53;;
10894;SDS011;5500;49.886;8.074;2023-04-01T16:50:39;15.20;;;9.10;;
10894;SDS011;5500;49.886;8.074;2023-04-01T16:53:16;7.87;;;5.47;;
10894;SDS011;5500;49.886;8.074;2023-04-01T16:55:46;1.17;;;1.00;;
10894;SDS011;5500;49.886;8.074;2023-04-01T16:58:18;1.93;;;0.90;;
10894;SDS011;5500;49.886;8.074;2023-04-01T17:00:51;1.27;;;0.73;;
10894;SDS011;5500;49.886;8.074;2023-04-01T17:03:22;0.50;;;0.27;;
10894;SDS011;5500;49.886;8.074;2023-04-01T17:09:13;1.57;;;0.70;;